createdAt,value
2018-09-11T08:07:53.789Z,19.22
2018-09-11T08:10:21.121Z,19.40
2018-09-11T08:12:48.466Z,19.78
2018-09-11T08:15:15.861Z,19.64
2018-09-11T08:17:43.326Z,19.55
2018-09-11T08:20:10.618Z,19.74
2018-09-11T08:22:37.895Z,19.70
2018-09-11T08:25:05.581Z,19.86
2018-09-11T08:27:32.885Z,19.92
2018-09-11T08:30:00.488Z,19.69
2018-09-11T08:32:28.642Z,19.90
2018-09-11T08:34:56.129Z,19.79
2018-09-11T08:37:23.564Z,19.86
2018-09-11T08:39:50.957Z,19.69
2018-09-11T08:42:18.397Z,20.06
2018-09-11T08:44:45.688Z,19.80
2018-09-11T08:47:13.047Z,20.08
2018-09-11T08:49:40.550Z,20.14
2018-09-11T08:52:07.928Z,20.04
2018-09-11T08:54:35.805Z,20.00
2018-09-11T08:57:03.109Z,20.02
2018-09-11T08:59:30.633Z,20.09
2018-09-11T09:01:58.083Z,20.24
2018-09-11T09:04:31.258Z,20.09
2018-09-11T09:06:59.084Z,20.36
2018-09-11T09:09:26.661Z,20.46
2018-09-11T09:11:54.058Z,20.79
2018-09-11T09:14:21.528Z,20.93
2018-09-11T09:16:49.184Z,20.74
2018-09-11T09:19:16.620Z,20.60
2018-09-11T09:21:43.957Z,20.83
2018-09-11T09:24:11.348Z,20.65
2018-09-11T09:26:38.673Z,20.89
2018-09-11T09:29:06.025Z,21.24
2018-09-11T09:31:33.372Z,21.40
2018-09-11T09:34:01.418Z,21.24
2018-09-11T09:36:28.752Z,21.40
2018-09-11T09:38:56.108Z,21.27
2018-09-11T09:41:24.237Z,21.36
2018-09-11T09:43:51.730Z,21.19
2018-09-11T09:46:19.904Z,21.30
2018-09-11T09:48:47.334Z,21.48
2018-09-11T09:51:14.765Z,21.83
2018-09-11T09:53:42.106Z,21.59
2018-09-11T09:56:09.417Z,21.78
2018-09-11T09:58:37.558Z,21.55
2018-09-11T10:01:10.575Z,21.40
2018-09-11T10:03:37.889Z,21.87
2018-09-11T10:06:05.220Z,21.72
2018-09-11T10:08:32.946Z,22.07
2018-09-11T10:11:00.427Z,21.96
2018-09-11T10:13:28.589Z,22.08
2018-09-11T10:15:55.893Z,21.85
2018-09-11T10:18:24.238Z,21.93
2018-09-11T10:20:51.626Z,22.35
2018-09-11T10:23:19.028Z,22.10
2018-09-11T10:25:46.478Z,22.39
2018-09-11T10:28:13.922Z,22.40
2018-09-11T10:30:41.518Z,22.26
2018-09-11T10:33:08.903Z,22.61
2018-09-11T10:35:36.276Z,22.67
2018-09-11T10:38:03.882Z,22.83
2018-09-11T10:40:31.576Z,23.02
2018-09-11T10:42:59.124Z,23.15
2018-09-11T10:45:27.271Z,23.06
2018-09-11T10:47:55.767Z,23.20
2018-09-11T10:50:23.063Z,22.88
2018-09-11T10:52:50.457Z,22.89
2018-09-11T10:55:17.796Z,22.47
2018-09-11T10:57:45.353Z,22.86
2018-09-11T11:00:12.855Z,22.79
2018-09-11T11:02:40.554Z,22.72
2018-09-11T11:05:08.164Z,22.66
2018-09-11T11:10:13.523Z,22.79
2018-09-11T11:12:41.043Z,22.92
2018-09-11T11:15:08.547Z,22.55
2018-09-11T11:17:35.933Z,22.71
2018-09-11T11:20:03.203Z,22.82
2018-09-11T11:22:30.799Z,23.01
2018-09-11T11:24:58.173Z,23.27
2018-09-11T11:27:25.551Z,23.27
2018-09-11T11:29:53.663Z,23.42
2018-09-11T11:32:21.270Z,22.96
2018-09-11T11:34:48.573Z,23.04
2018-09-11T11:37:16.117Z,23.38
2018-09-11T11:39:43.421Z,23.23
2018-09-11T11:42:11.068Z,23.15
2018-09-11T11:44:38.470Z,23.35
2018-09-11T11:47:06.083Z,23.39
2018-09-11T11:49:33.542Z,23.18
2018-09-11T11:52:01.139Z,23.56
2018-09-11T11:54:28.477Z,23.29
2018-09-11T11:56:55.814Z,23.62
2018-09-11T11:59:23.287Z,23.41
2018-09-11T12:01:50.873Z,23.47
2018-09-11T12:04:18.245Z,23.26
2018-09-11T12:06:45.643Z,22.85
2018-09-11T12:09:13.063Z,22.83
2018-09-11T12:11:40.598Z,22.99
2018-09-11T12:14:07.997Z,22.98
2018-09-11T12:16:35.348Z,22.79
2018-09-11T12:19:02.731Z,23.04
2018-09-11T12:21:30.219Z,23.71
2018-09-11T12:23:57.642Z,23.81
2018-09-11T12:26:25.683Z,23.57
2018-09-11T12:28:53.582Z,23.63
2018-09-11T12:31:21.122Z,24.20
2018-09-11T12:33:50.533Z,24.82
2018-09-11T12:36:17.841Z,24.97
2018-09-11T12:38:45.340Z,25.20
2018-09-11T12:41:12.675Z,25.49
2018-09-11T12:43:40.223Z,25.81
2018-09-11T12:46:07.966Z,25.39
2018-09-11T12:48:35.393Z,24.33
2018-09-11T12:51:02.632Z,24.77
2018-09-11T12:53:30.089Z,24.62
2018-09-11T12:55:57.541Z,24.61
2018-09-11T12:58:24.991Z,24.27
2018-09-11T13:00:52.414Z,24.46
2018-09-11T13:03:20.374Z,24.21
2018-09-11T13:05:47.799Z,23.91
2018-09-11T13:08:15.126Z,24.34
2018-09-11T13:10:42.523Z,24.54
2018-09-11T13:13:09.880Z,24.84
2018-09-11T13:15:37.965Z,25.41
2018-09-11T13:18:05.320Z,25.08
2018-09-11T13:20:32.736Z,24.83
2018-09-11T13:23:00.260Z,26.61
2018-09-11T13:25:27.804Z,25.56
2018-09-11T13:27:55.191Z,25.70
2018-09-11T13:30:22.643Z,24.49
2018-09-11T13:32:50.033Z,24.99
2018-09-11T13:35:17.315Z,23.37
2018-09-11T13:37:44.678Z,23.32
2018-09-11T13:40:12.159Z,23.39
2018-09-11T13:42:39.637Z,23.50
2018-09-11T13:45:07.086Z,23.20
2018-09-11T13:47:34.618Z,22.70
2018-09-11T13:50:01.966Z,23.14
2018-09-11T13:52:29.356Z,22.97
2018-09-11T13:54:56.682Z,23.04
2018-09-11T13:57:24.109Z,22.98
2018-09-11T13:59:52.276Z,22.98
2018-09-11T14:02:20.000Z,22.64
2018-09-11T14:04:47.366Z,22.41
2018-09-11T14:07:15.142Z,22.80
2018-09-11T14:09:43.081Z,22.86
2018-09-11T14:12:10.521Z,22.92
2018-09-11T14:14:37.864Z,22.74
2018-09-11T14:17:05.388Z,22.95
2018-09-11T14:19:32.795Z,23.21
2018-09-11T14:22:00.234Z,23.38
2018-09-11T14:24:27.820Z,23.24
2018-09-11T14:26:55.695Z,22.99
2018-09-11T14:29:23.153Z,22.82
2018-09-11T14:31:50.638Z,22.76
2018-09-11T14:34:18.728Z,22.97
2018-09-11T14:36:46.272Z,22.98
2018-09-11T14:39:13.995Z,23.02
2018-09-11T14:41:41.377Z,22.78
2018-09-11T14:44:09.014Z,22.88
2018-09-11T14:46:36.763Z,22.62
2018-09-11T14:49:04.648Z,23.06
2018-09-11T14:51:32.278Z,22.67
2018-09-11T14:54:00.101Z,22.52
2018-09-11T14:56:27.625Z,22.39
2018-09-11T14:58:55.918Z,22.32
2018-09-11T15:01:23.848Z,22.43
2018-09-11T15:03:51.455Z,22.31
2018-09-11T15:06:18.993Z,22.36
2018-09-11T15:08:46.915Z,22.46
2018-09-11T15:11:14.673Z,22.47
2018-09-11T15:13:42.414Z,22.46
2018-09-11T15:16:10.094Z,22.18
2018-09-11T15:18:37.810Z,22.02
2018-09-11T15:21:05.295Z,22.41
2018-09-11T15:23:32.779Z,22.07
2018-09-11T15:26:00.353Z,21.92
2018-09-11T15:28:27.782Z,22.16
2018-09-11T15:30:55.306Z,22.00
2018-09-11T15:33:23.046Z,22.27
2018-09-11T15:35:54.689Z,22.69
2018-09-11T15:38:22.570Z,22.13
2018-09-11T15:40:50.444Z,22.65
2018-09-11T15:43:18.203Z,22.19
2018-09-11T15:45:46.423Z,22.44
2018-09-11T15:48:14.579Z,22.83
2018-09-11T15:50:42.440Z,23.49
2018-09-11T15:53:09.877Z,23.51
2018-09-11T15:55:37.519Z,22.78
2018-09-11T15:58:04.882Z,22.47
2018-09-11T16:00:32.283Z,22.40
2018-09-11T16:03:00.476Z,22.29
2018-09-11T16:05:27.899Z,21.70
2018-09-11T16:07:55.760Z,21.74
2018-09-11T16:10:23.324Z,21.59
2018-09-11T16:12:50.810Z,21.74
2018-09-11T16:15:18.171Z,21.72
2018-09-11T16:17:45.693Z,21.35
2018-09-11T16:20:13.461Z,21.74
2018-09-11T16:22:41.250Z,21.69
2018-09-11T16:25:08.643Z,21.68
2018-09-11T16:27:36.143Z,21.63
2018-09-11T16:30:03.830Z,21.63
2018-09-11T16:32:31.246Z,21.71
2018-09-11T16:34:58.705Z,21.73
2018-09-11T16:37:26.054Z,21.38
2018-09-11T16:39:53.492Z,21.43
2018-09-11T16:42:21.004Z,21.21
2018-09-11T16:44:48.409Z,21.13
2018-09-11T16:47:15.860Z,21.13
2018-09-11T16:49:43.593Z,21.37
2018-09-11T16:52:10.981Z,21.27
2018-09-11T16:54:38.329Z,21.37
2018-09-11T16:57:05.669Z,21.07
2018-09-11T16:59:33.906Z,20.97
2018-09-11T17:02:02.130Z,21.28
2018-09-11T17:04:29.624Z,21.28
2018-09-11T17:06:57.082Z,21.07
2018-09-11T17:09:25.095Z,21.21
2018-09-11T17:11:52.704Z,21.18
2018-09-11T17:14:20.151Z,21.32
2018-09-11T17:16:47.564Z,21.41
2018-09-11T17:19:15.161Z,21.37
2018-09-11T17:21:42.609Z,21.08
2018-09-11T17:24:10.478Z,20.92
2018-09-11T17:26:38.450Z,21.10
2018-09-11T17:29:05.800Z,21.09
2018-09-11T17:31:33.202Z,21.32
2018-09-11T17:34:00.541Z,21.34
2018-09-11T17:36:28.123Z,21.02
2018-09-11T17:38:55.810Z,20.76
2018-09-11T17:41:23.303Z,20.91
2018-09-11T17:43:51.287Z,20.92
2018-09-11T17:46:18.818Z,20.77
2018-09-11T17:48:46.376Z,20.96
2018-09-11T17:51:14.251Z,21.03
2018-09-11T17:53:41.700Z,20.67
2018-09-11T17:56:09.280Z,20.77
2018-09-11T17:58:36.852Z,20.87
2018-09-11T18:01:04.467Z,20.46
2018-09-11T18:03:32.014Z,20.92
2018-09-11T18:06:00.577Z,20.87
2018-09-11T18:08:28.319Z,20.79
2018-09-11T18:10:55.964Z,20.42
2018-09-11T18:13:23.741Z,20.64
2018-09-11T18:15:52.429Z,20.51
2018-09-11T18:18:21.511Z,20.28
2018-09-11T18:20:48.876Z,20.44
2018-09-11T18:23:16.727Z,20.42
2018-09-11T18:25:45.137Z,20.51
2018-09-11T18:28:12.573Z,20.34
2018-09-11T18:30:40.170Z,20.60
2018-09-11T18:33:07.736Z,20.37
2018-09-11T18:35:35.064Z,20.67
2018-09-11T18:38:02.584Z,20.34
2018-09-11T18:40:29.882Z,20.19
2018-09-11T18:42:57.441Z,20.22
2018-09-11T18:45:24.822Z,20.41
2018-09-11T18:47:52.512Z,20.48
2018-09-11T18:50:19.887Z,20.43
2018-09-11T18:52:47.483Z,20.47
2018-09-11T18:55:15.430Z,20.47
2018-09-11T18:57:42.821Z,20.40
2018-09-11T19:00:10.452Z,20.44
2018-09-11T19:02:37.800Z,20.43
2018-09-11T19:05:05.213Z,20.35
2018-09-11T19:07:32.674Z,20.52
2018-09-11T19:10:00.031Z,20.64
2018-09-11T19:12:27.637Z,20.49
2018-09-11T19:14:55.593Z,20.11
2018-09-11T19:17:22.874Z,20.36
2018-09-11T19:19:50.253Z,20.33
2018-09-11T19:22:17.720Z,20.10
2018-09-11T19:24:45.194Z,20.23
2018-09-11T19:27:13.289Z,20.17
2018-09-11T19:29:40.710Z,20.22
2018-09-11T19:32:08.035Z,20.38
2018-09-11T19:34:35.378Z,20.17
2018-09-11T19:37:02.775Z,20.41
2018-09-11T19:39:30.180Z,20.37
2018-09-11T19:41:57.513Z,20.13
2018-09-11T19:44:25.720Z,20.27
2018-09-11T19:46:53.168Z,20.24
2018-09-11T19:49:20.487Z,20.36
2018-09-11T19:51:48.526Z,20.13
2018-09-11T19:54:15.905Z,20.60
2018-09-11T19:56:43.373Z,20.15
2018-09-11T19:59:10.855Z,20.43
2018-09-11T20:01:38.163Z,20.38
2018-09-11T20:04:05.506Z,20.34
2018-09-11T20:06:32.769Z,20.34
2018-09-11T20:09:00.276Z,20.31
2018-09-11T20:11:27.617Z,20.28
2018-09-11T20:13:55.045Z,20.20
2018-09-11T20:16:22.409Z,20.38
2018-09-11T20:18:56.151Z,20.50
2018-09-11T20:21:39.508Z,20.47
2018-09-11T20:24:07.791Z,20.37
2018-09-11T20:26:35.180Z,20.08
2018-09-11T20:29:02.568Z,20.30
2018-09-11T20:31:29.993Z,20.32
2018-09-11T20:33:57.583Z,20.43
2018-09-11T20:36:25.191Z,20.27
2018-09-11T20:38:52.506Z,20.47
2018-09-11T20:41:24.063Z,20.44
2018-09-11T20:43:51.715Z,20.36
2018-09-11T20:46:19.068Z,20.47
2018-09-11T20:48:46.585Z,20.42
2018-09-11T20:51:13.893Z,20.34
2018-09-11T20:53:41.275Z,20.23
2018-09-11T20:56:08.651Z,20.17
2018-09-11T20:58:36.638Z,20.18
2018-09-11T21:01:03.982Z,20.38
2018-09-11T21:03:31.330Z,20.23
2018-09-11T21:05:58.863Z,20.29
2018-09-11T21:08:26.414Z,20.56
2018-09-11T21:10:53.756Z,20.65
2018-09-11T21:13:21.159Z,20.48
2018-09-11T21:15:48.578Z,20.25
2018-09-11T21:18:16.024Z,20.43
2018-09-11T21:20:43.389Z,20.15
2018-09-11T21:23:11.054Z,20.26
2018-09-11T21:25:39.463Z,20.13
2018-09-11T21:28:07.633Z,20.36
2018-09-11T21:30:35.000Z,20.43
2018-09-11T21:33:02.408Z,20.19
2018-09-11T21:35:29.851Z,20.30
2018-09-11T21:37:58.101Z,20.46
2018-09-11T21:40:25.530Z,20.32
2018-09-11T21:42:53.160Z,20.39
2018-09-11T21:45:21.606Z,20.21
2018-09-11T21:47:49.002Z,20.14
2018-09-11T21:50:16.672Z,20.28
2018-09-11T21:52:44.009Z,20.40
2018-09-11T21:55:11.441Z,20.31
2018-09-11T21:57:38.767Z,20.12
2018-09-11T22:00:08.688Z,20.24
2018-09-11T22:02:36.539Z,20.17
2018-09-11T22:05:03.967Z,20.22
2018-09-11T22:07:31.523Z,20.25
2018-09-11T22:09:58.984Z,20.60
2018-09-11T22:12:26.249Z,20.22
2018-09-11T22:14:53.625Z,20.55
2018-09-11T22:17:21.547Z,20.34
2018-09-11T22:19:48.905Z,20.29
2018-09-11T22:22:16.355Z,20.34
2018-09-11T22:24:43.826Z,20.42
2018-09-11T22:27:11.133Z,20.48
2018-09-11T22:29:38.513Z,20.31
2018-09-11T22:32:05.928Z,20.30
2018-09-11T22:34:33.345Z,20.41
2018-09-11T22:37:00.634Z,20.37
2018-09-11T22:39:27.930Z,20.21
2018-09-11T22:41:55.352Z,20.34
2018-09-11T22:44:22.755Z,20.20
2018-09-11T22:46:50.123Z,20.33
2018-09-11T22:49:17.449Z,20.36
2018-09-11T22:51:44.738Z,20.45
2018-09-11T22:54:12.279Z,20.42
2018-09-11T22:56:39.970Z,20.29
2018-09-11T22:59:07.382Z,20.17
2018-09-11T23:01:34.797Z,20.15
2018-09-11T23:04:02.269Z,20.55
2018-09-11T23:06:29.633Z,20.38
2018-09-11T23:08:57.137Z,20.35
2018-09-11T23:11:24.416Z,20.16
2018-09-11T23:13:51.774Z,20.22
2018-09-11T23:16:19.073Z,20.19
2018-09-11T23:18:46.477Z,20.59
2018-09-11T23:21:13.858Z,20.59
2018-09-11T23:23:42.973Z,20.41
2018-09-11T23:26:10.247Z,20.40
2018-09-11T23:28:37.589Z,20.35
2018-09-11T23:31:04.856Z,20.68
2018-09-11T23:33:32.115Z,20.10
2018-09-11T23:35:59.411Z,20.19
2018-09-11T23:38:26.701Z,20.23
2018-09-11T23:40:54.002Z,20.41
2018-09-11T23:43:21.396Z,20.40
2018-09-11T23:45:48.755Z,20.31
2018-09-11T23:48:16.157Z,20.25
2018-09-11T23:50:43.503Z,20.49
2018-09-11T23:53:10.854Z,20.22
2018-09-11T23:55:38.087Z,20.35
2018-09-11T23:58:05.385Z,20.25
